createdAt,value
2022-08-25T00:00:08.841Z,99473.34
2022-08-25T00:02:35.545Z,99474.09
2022-08-25T00:05:04.667Z,99467.00
2022-08-25T00:07:31.300Z,99477.75
2022-08-25T00:09:57.879Z,99471.66
2022-08-25T00:12:24.525Z,99467.69
2022-08-25T00:14:51.126Z,99466.66
2022-08-25T00:17:17.792Z,99464.28
2022-08-25T00:19:44.644Z,99462.97
2022-08-25T00:22:11.301Z,99466.03
2022-08-25T00:24:37.896Z,99462.25
2022-08-25T00:27:05.569Z,99465.56
2022-08-25T00:29:32.919Z,99461.81
2022-08-25T00:31:59.812Z,99457.06
2022-08-25T00:34:34.244Z,99454.50
2022-08-25T00:37:01.776Z,99465.22
2022-08-25T00:39:28.477Z,99459.75
2022-08-25T00:41:57.108Z,99459.84
2022-08-25T00:44:26.145Z,99454.75
2022-08-25T00:46:54.724Z,99457.75
2022-08-25T00:49:29.094Z,99457.53
2022-08-25T00:52:00.427Z,99458.13
2022-08-25T00:54:32.973Z,99462.47
2022-08-25T00:57:00.855Z,99447.47
2022-08-25T00:59:28.221Z,99449.91
2022-08-25T01:01:56.068Z,99457.25
2022-08-25T01:04:23.780Z,99453.72
2022-08-25T01:06:50.689Z,99450.78
2022-08-25T01:09:17.969Z,99456.72
2022-08-25T01:11:45.508Z,99445.00
2022-08-25T01:14:15.015Z,99440.44
2022-08-25T01:16:43.776Z,99439.94
2022-08-25T01:19:15.251Z,99443.81
2022-08-25T01:21:45.115Z,99440.28
2022-08-25T01:24:17.019Z,99437.03
2022-08-25T01:26:43.729Z,99433.19
2022-08-25T01:29:22.409Z,99433.78
2022-08-25T01:31:50.883Z,99429.75
2022-08-25T01:34:18.849Z,99428.47
2022-08-25T01:36:45.623Z,99427.09
2022-08-25T01:39:13.543Z,99427.38
2022-08-25T01:41:40.096Z,99423.00
2022-08-25T01:44:07.552Z,99418.16
2022-08-25T01:46:42.790Z,99423.66
2022-08-25T01:49:10.642Z,99420.13
2022-08-25T01:51:46.695Z,99422.31
2022-08-25T01:54:13.566Z,99419.91
2022-08-25T01:56:40.263Z,99427.53
2022-08-25T01:59:07.012Z,99418.56
2022-08-25T02:01:34.538Z,99430.03
2022-08-25T02:04:01.441Z,99427.91
2022-08-25T02:06:32.327Z,99431.13
2022-08-25T02:09:05.442Z,99427.31
2022-08-25T02:11:33.766Z,99425.41
2022-08-25T02:14:01.049Z,99434.06
2022-08-25T02:16:32.860Z,99425.63
2022-08-25T02:19:00.285Z,99430.25
2022-08-25T02:21:27.166Z,99425.63
2022-08-25T02:23:53.824Z,99428.59
2022-08-25T02:26:21.086Z,99427.25
2022-08-25T02:28:48.094Z,99422.91
2022-08-25T02:31:15.781Z,99424.53
2022-08-25T02:33:42.427Z,99424.53
2022-08-25T02:36:09.181Z,99423.44
2022-08-25T02:38:36.184Z,99421.81
2022-08-25T02:41:20.240Z,99421.00
2022-08-25T02:43:48.883Z,99412.91
2022-08-25T02:46:17.137Z,99423.78
2022-08-25T02:48:44.562Z,99417.53
2022-08-25T02:51:12.289Z,99413.16
2022-08-25T02:53:40.491Z,99411.56
2022-08-25T02:56:09.669Z,99417.81
2022-08-25T02:58:37.544Z,99410.75
2022-08-25T03:01:05.326Z,99411.84
2022-08-25T03:03:35.205Z,99414.84
2022-08-25T03:06:04.391Z,99408.31
2022-08-25T03:08:30.979Z,99409.72
2022-08-25T03:10:57.597Z,99409.72
2022-08-25T03:13:24.229Z,99408.38
2022-08-25T03:15:50.882Z,99409.19
2022-08-25T03:18:18.371Z,99412.19
2022-08-25T03:20:45.799Z,99408.69
2022-08-25T03:23:12.677Z,99406.22
2022-08-25T03:26:00.648Z,99407.84
2022-08-25T03:28:31.280Z,99407.31
2022-08-25T03:30:59.129Z,99403.84
2022-08-25T03:33:30.190Z,99408.47
2022-08-25T03:35:57.436Z,99404.66
2022-08-25T03:38:25.362Z,99404.19
2022-08-25T03:40:52.719Z,99398.97
2022-08-25T03:43:20.041Z,99397.88
2022-08-25T03:45:47.867Z,99402.50
2022-08-25T03:48:16.345Z,99402.22
2022-08-25T03:50:51.942Z,99399.78
2022-08-25T03:53:19.945Z,99395.72
2022-08-25T03:55:46.937Z,99400.06
2022-08-25T03:58:13.765Z,99403.03
2022-08-25T04:00:40.887Z,99399.50
2022-08-25T04:03:07.656Z,99410.66
2022-08-25T04:05:34.250Z,99408.22
2022-08-25T04:08:01.997Z,99405.75
2022-08-25T04:10:29.186Z,99407.09
2022-08-25T04:12:56.167Z,99410.84
2022-08-25T04:15:22.912Z,99408.09
2022-08-25T04:17:51.834Z,99410.75
2022-08-25T04:20:19.091Z,99403.66
2022-08-25T04:22:46.002Z,99408.47
2022-08-25T04:25:13.141Z,99408.16
2022-08-25T04:27:39.990Z,99412.41
2022-08-25T04:30:07.273Z,99411.78
2022-08-25T04:32:36.107Z,99414.69
2022-08-25T04:35:03.395Z,99406.91
2022-08-25T04:37:30.025Z,99408.19
2022-08-25T04:39:56.627Z,99409.00
2022-08-25T04:42:23.291Z,99408.13
2022-08-25T04:44:50.121Z,99413.34
2022-08-25T04:47:16.815Z,99418.66
2022-08-25T04:49:43.447Z,99417.53
2022-08-25T04:52:14.278Z,99416.44
2022-08-25T04:54:42.181Z,99411.69
2022-08-25T04:57:08.845Z,99415.47
2022-08-25T04:59:35.555Z,99413.25
2022-08-25T05:02:03.208Z,99415.63
2022-08-25T05:04:30.476Z,99423.78
2022-08-25T05:06:57.553Z,99410.44
2022-08-25T05:09:25.350Z,99415.00
2022-08-25T05:11:52.596Z,99410.91
2022-08-25T05:14:23.174Z,99413.25
2022-08-25T05:16:53.599Z,99409.91
2022-08-25T05:19:20.163Z,99412.28
2022-08-25T05:21:47.154Z,99413.28
2022-08-25T05:24:13.827Z,99413.63
2022-08-25T05:26:40.608Z,99407.44
2022-08-25T05:29:07.621Z,99418.09
2022-08-25T05:31:39.559Z,99415.47
2022-08-25T05:34:08.911Z,99419.88
2022-08-25T05:36:35.559Z,99423.72
2022-08-25T05:39:02.239Z,99425.09
2022-08-25T05:41:30.614Z,99423.72
2022-08-25T05:43:57.690Z,99424.22
2022-08-25T05:46:24.600Z,99423.13
2022-08-25T05:48:51.468Z,99426.38
2022-08-25T05:51:18.634Z,99424.34
2022-08-25T05:53:48.668Z,99421.88
2022-08-25T05:56:15.786Z,99430.31
2022-08-25T05:58:43.473Z,99428.44
2022-08-25T06:01:29.792Z,99421.56
2022-08-25T06:03:56.553Z,99419.09
2022-08-25T06:06:24.439Z,99416.44
2022-08-25T06:08:51.800Z,99412.41
2022-08-25T06:11:19.322Z,99412.81
2022-08-25T06:13:46.488Z,99413.97
2022-08-25T06:16:13.219Z,99410.31
2022-08-25T06:18:39.851Z,99411.66
2022-08-25T06:21:11.238Z,99414.44
2022-08-25T06:23:38.470Z,99418.94
2022-08-25T06:26:05.283Z,99419.31
2022-08-25T06:28:31.882Z,99417.03
2022-08-25T06:31:00.286Z,99417.69
2022-08-25T06:33:27.229Z,99423.66
2022-08-25T06:35:56.052Z,99414.75
2022-08-25T06:38:23.434Z,99424.66
2022-08-25T06:40:52.094Z,99414.19
2022-08-25T06:43:22.073Z,99422.75
2022-08-25T06:45:48.822Z,99424.31
2022-08-25T06:48:16.127Z,99426.72
2022-08-25T06:50:43.215Z,99426.91
2022-08-25T06:53:09.846Z,99429.91
2022-08-25T06:55:36.885Z,99439.44
2022-08-25T06:58:04.925Z,99443.34
2022-08-25T07:00:32.970Z,99437.41
2022-08-25T07:03:01.147Z,99434.09
2022-08-25T07:05:40.913Z,99437.44
2022-08-25T07:08:11.903Z,99439.81
2022-08-25T07:10:38.973Z,99446.06
2022-08-25T07:13:05.558Z,99446.63
2022-08-25T07:15:32.207Z,99446.19
2022-08-25T07:17:58.843Z,99442.84
2022-08-25T07:22:57.988Z,99448.69
2022-08-25T07:25:24.689Z,99447.94
2022-08-25T07:27:53.897Z,99457.09
2022-08-25T07:30:24.026Z,99449.38
2022-08-25T07:32:51.349Z,99446.78
2022-08-25T07:35:24.607Z,99455.72
2022-08-25T07:37:57.136Z,99451.41
2022-08-25T07:40:31.911Z,99450.34
2022-08-25T07:43:01.539Z,99450.78
2022-08-25T07:45:30.673Z,99446.69
2022-08-25T07:48:03.402Z,99449.16
2022-08-25T07:50:31.343Z,99440.75
2022-08-25T07:52:58.747Z,99454.25
2022-08-25T07:55:27.037Z,99445.75
2022-08-25T07:57:57.155Z,99442.97
2022-08-25T08:00:27.717Z,99442.50
2022-08-25T08:02:54.933Z,99443.28
2022-08-25T08:05:21.655Z,99440.84
2022-08-25T08:07:50.590Z,99441.72
2022-08-25T08:13:07.240Z,99437.84
2022-08-25T08:15:34.971Z,99450.69
2022-08-25T08:18:02.104Z,99449.78
2022-08-25T08:20:42.845Z,99448.44
2022-08-25T08:23:10.682Z,99445.97
2022-08-25T08:25:37.334Z,99450.72
2022-08-25T08:28:04.098Z,99439.22
2022-08-25T08:30:34.413Z,99444.16
2022-08-25T08:33:11.139Z,99443.41
2022-08-25T08:35:39.769Z,99438.41
2022-08-25T08:38:14.552Z,99436.13
2022-08-25T08:41:10.425Z,99433.31
2022-08-25T08:43:37.412Z,99431.63
2022-08-25T08:46:07.590Z,99437.84
2022-08-25T08:48:40.790Z,99432.38
2022-08-25T08:51:23.140Z,99437.63
2022-08-25T08:54:01.265Z,99437.81
2022-08-25T08:56:45.331Z,99437.09
2022-08-25T08:59:22.148Z,99428.50
2022-08-25T09:02:01.854Z,99419.56
2022-08-25T09:04:44.254Z,99422.63
2022-08-25T09:07:14.800Z,99424.38
2022-08-25T09:09:43.504Z,99427.53
2022-08-25T09:12:13.484Z,99425.72
2022-08-25T09:15:12.873Z,99424.81
2022-08-25T09:17:54.865Z,99428.22
2022-08-25T09:20:50.646Z,99415.31
2022-08-25T09:23:36.238Z,99414.41
2022-08-25T09:26:08.958Z,99413.63
2022-08-25T09:28:41.832Z,99409.34
2022-08-25T09:31:26.454Z,99401.34
2022-08-25T09:33:57.497Z,99398.50
2022-08-25T09:36:24.735Z,99395.13
2022-08-25T09:38:51.743Z,99392.69
2022-08-25T09:41:45.074Z,99397.84
2022-08-25T09:44:26.033Z,99386.13
2022-08-25T09:47:28.026Z,99379.63
2022-08-25T09:50:01.817Z,99385.03
2022-08-25T09:52:37.812Z,99380.63
2022-08-25T09:55:16.467Z,99387.63
2022-08-25T09:57:43.006Z,99380.97
2022-08-25T10:00:13.742Z,99381.84
2022-08-25T10:02:41.669Z,99381.84
2022-08-25T10:05:28.271Z,99373.88
2022-08-25T10:07:58.449Z,99373.41
2022-08-25T10:10:32.467Z,99374.38
2022-08-25T10:13:01.177Z,99368.72
2022-08-25T10:15:35.316Z,99367.94
2022-08-25T10:18:20.718Z,99359.47
2022-08-25T10:21:11.925Z,99359.38
2022-08-25T10:23:51.647Z,99356.44
2022-08-25T10:26:44.282Z,99362.28
2022-08-25T10:29:23.725Z,99351.91
2022-08-25T10:31:58.191Z,99356.94
2022-08-25T10:34:40.047Z,99352.44
2022-08-25T10:37:36.045Z,99344.13
2022-08-25T10:40:24.241Z,99356.72
2022-08-25T10:43:02.680Z,99341.47
2022-08-25T10:45:45.756Z,99346.75
2022-08-25T10:48:33.603Z,99345.72
2022-08-25T10:51:21.524Z,99338.69
2022-08-25T10:53:56.235Z,99338.78
2022-08-25T10:56:27.922Z,99333.97
2022-08-25T10:59:09.268Z,99342.44
2022-08-25T11:01:56.486Z,99334.69
2022-08-25T11:04:36.625Z,99326.03
2022-08-25T11:07:13.380Z,99323.53
2022-08-25T11:09:45.342Z,99329.88
2022-08-25T11:12:16.247Z,99321.34
2022-08-25T11:14:57.255Z,99313.84
2022-08-25T11:17:32.958Z,99312.63
2022-08-25T11:20:08.490Z,99312.72
2022-08-25T11:22:43.046Z,99317.22
2022-08-25T11:25:32.332Z,99312.22
2022-08-25T11:28:13.150Z,99311.84
2022-08-25T11:30:40.773Z,99305.50
2022-08-25T11:33:07.627Z,99300.81
2022-08-25T11:35:42.485Z,99298.84
2022-08-25T11:38:12.401Z,99294.19
2022-08-25T11:41:11.091Z,99288.47
2022-08-25T11:44:02.176Z,99292.88
2022-08-25T11:47:00.382Z,99290.88
2022-08-25T11:49:42.102Z,99287.84
2022-08-25T11:52:34.781Z,99290.16
2022-08-25T11:55:13.655Z,99279.47
2022-08-25T11:57:41.862Z,99283.72
2022-08-25T12:00:15.001Z,99273.06
2022-08-25T12:02:51.222Z,99288.84
2022-08-25T12:05:24.206Z,99285.03
2022-08-25T12:08:14.145Z,99287.41
2022-08-25T12:10:52.620Z,99276.44
2022-08-25T12:13:39.130Z,99280.47
2022-08-25T12:16:06.370Z,99281.28
2022-08-25T12:18:32.924Z,99290.06
2022-08-25T12:21:00.919Z,99277.13
2022-08-25T12:23:44.712Z,99269.97
2022-08-25T12:26:19.066Z,99271.31
2022-08-25T12:28:58.900Z,99272.47
2022-08-25T12:31:30.484Z,99272.28
2022-08-25T12:34:17.527Z,99260.97
2022-08-25T12:36:59.791Z,99260.63
2022-08-25T12:39:31.859Z,99254.94
2022-08-25T12:44:49.483Z,99256.97
2022-08-25T12:47:19.234Z,99253.00
2022-08-25T12:49:50.809Z,99247.41
2022-08-25T12:52:19.820Z,99250.78
2022-08-25T12:54:56.284Z,99249.56
2022-08-25T12:58:01.080Z,99237.72
2022-08-25T13:00:37.863Z,99244.16
2022-08-25T13:03:22.807Z,99244.91
2022-08-25T13:06:11.515Z,99230.03
2022-08-25T13:08:52.763Z,99228.19
2022-08-25T13:11:48.996Z,99221.41
2022-08-25T13:14:37.815Z,99231.84
2022-08-25T13:17:05.640Z,99232.72
2022-08-25T13:19:35.000Z,99219.97
2022-08-25T13:22:15.579Z,99228.34
2022-08-25T13:24:45.364Z,99227.84
2022-08-25T13:27:27.542Z,99219.78
2022-08-25T13:29:58.985Z,99226.41
2022-08-25T13:32:36.885Z,99209.66
2022-08-25T13:35:25.553Z,99211.81
2022-08-25T13:37:54.726Z,99222.31
2022-08-25T13:40:26.286Z,99218.03
2022-08-25T13:43:01.119Z,99214.19
2022-08-25T13:45:31.901Z,99205.75
2022-08-25T13:47:58.863Z,99214.31
2022-08-25T13:50:26.417Z,99206.19
2022-08-25T13:52:59.085Z,99201.13
2022-08-25T13:55:51.001Z,99204.94
2022-08-25T13:58:39.018Z,99197.63
2022-08-25T14:01:47.388Z,99201.38
2022-08-25T14:04:50.775Z,99196.31
2022-08-25T14:07:19.503Z,99197.34
2022-08-25T14:09:57.631Z,99190.44
2022-08-25T14:12:39.923Z,99182.31
2022-08-25T14:15:20.041Z,99187.16
2022-08-25T14:17:59.087Z,99182.94
2022-08-25T14:20:29.151Z,99185.78
2022-08-25T14:22:58.705Z,99181.56
2022-08-25T14:25:27.649Z,99177.91
2022-08-25T14:28:07.758Z,99182.44
2022-08-25T14:30:37.203Z,99172.22
2022-08-25T14:33:04.474Z,99177.44
2022-08-25T14:35:31.692Z,99172.31
2022-08-25T14:37:58.353Z,99177.91
2022-08-25T14:40:25.115Z,99178.50
2022-08-25T14:42:51.784Z,99170.53
2022-08-25T14:45:19.202Z,99174.53
2022-08-25T14:47:49.885Z,99179.59
2022-08-25T14:50:20.057Z,99172.50
2022-08-25T14:52:48.356Z,99166.63
2022-08-25T14:55:31.148Z,99168.34
2022-08-25T14:57:59.229Z,99157.66
2022-08-25T15:00:26.341Z,99155.00
2022-08-25T15:02:53.210Z,99164.47
2022-08-25T15:05:27.021Z,99159.69
2022-08-25T15:08:21.963Z,99157.94
2022-08-25T15:10:48.585Z,99152.25
2022-08-25T15:13:15.175Z,99156.78
2022-08-25T15:15:52.342Z,99159.22
2022-08-25T15:18:20.680Z,99153.50
2022-08-25T15:20:47.478Z,99152.94
2022-08-25T15:23:18.443Z,99154.03
2022-08-25T15:25:46.748Z,99162.31
2022-08-25T15:28:17.208Z,99150.06
2022-08-25T15:30:45.972Z,99148.88
2022-08-25T15:33:13.775Z,99154.31
2022-08-25T15:35:41.110Z,99146.06
2022-08-25T15:38:08.312Z,99145.53
2022-08-25T15:40:37.527Z,99137.28
2022-08-25T15:43:05.269Z,99133.16
2022-08-25T15:45:32.151Z,99136.13
2022-08-25T15:47:59.598Z,99140.66
2022-08-25T15:50:26.909Z,99133.31
2022-08-25T15:52:53.702Z,99132.94
2022-08-25T15:55:20.983Z,99132.94
2022-08-25T15:57:49.517Z,99133.16
2022-08-25T16:00:17.667Z,99126.75
2022-08-25T16:02:45.416Z,99133.47
2022-08-25T16:05:13.682Z,99126.19
2022-08-25T16:07:42.834Z,99128.91
2022-08-25T16:10:10.391Z,99125.59
2022-08-25T16:12:38.033Z,99131.06
2022-08-25T16:15:05.729Z,99121.00
2022-08-25T16:17:32.388Z,99124.34
2022-08-25T16:19:59.086Z,99117.44
2022-08-25T16:22:26.034Z,99108.91
2022-08-25T16:24:52.665Z,99116.16
2022-08-25T16:27:19.905Z,99109.56
2022-08-25T16:29:47.235Z,99117.59
2022-08-25T16:32:15.320Z,99122.75
2022-08-25T16:34:44.366Z,99119.03
2022-08-25T16:37:11.537Z,99110.91
2022-08-25T16:39:41.370Z,99111.34
2022-08-25T16:42:08.011Z,99112.66
2022-08-25T16:44:35.208Z,99109.53
2022-08-25T16:47:02.339Z,99112.78
2022-08-25T16:49:29.014Z,99100.53
2022-08-25T16:51:57.196Z,99117.81
2022-08-25T16:54:43.943Z,99124.63
2022-08-25T16:57:11.127Z,99124.00
2022-08-25T16:59:37.704Z,99120.94
2022-08-25T17:02:06.329Z,99116.03
2022-08-25T17:04:33.017Z,99111.91
2022-08-25T17:06:59.807Z,99112.22
2022-08-25T17:09:26.481Z,99119.78
2022-08-25T17:11:56.769Z,99127.31
2022-08-25T17:14:24.150Z,99125.34
2022-08-25T17:16:54.487Z,99118.69
2022-08-25T17:19:21.255Z,99133.19
2022-08-25T17:21:50.762Z,99126.34
2022-08-25T17:24:17.780Z,99127.56
2022-08-25T17:26:46.422Z,99127.22
2022-08-25T17:29:13.033Z,99129.06
2022-08-25T17:31:40.143Z,99132.44
2022-08-25T17:34:12.140Z,99130.72
2022-08-25T17:36:42.983Z,99133.72
2022-08-25T17:39:11.985Z,99127.53
2022-08-25T17:41:39.001Z,99136.34
2022-08-25T17:44:08.445Z,99135.44
2022-08-25T17:46:36.502Z,99137.09
2022-08-25T17:49:04.026Z,99142.19
2022-08-25T17:51:31.865Z,99144.94
2022-08-25T17:53:59.184Z,99145.50
2022-08-25T17:56:27.230Z,99149.16
2022-08-25T17:58:55.391Z,99145.78
2022-08-25T18:01:30.515Z,99147.91
2022-08-25T18:03:58.870Z,99150.31
2022-08-25T18:06:29.389Z,99154.81
2022-08-25T18:09:00.019Z,99153.47
2022-08-25T18:11:28.540Z,99154.59
2022-08-25T18:13:55.785Z,99158.13
2022-08-25T18:16:23.465Z,99165.00
2022-08-25T18:18:50.159Z,99163.72
2022-08-25T18:21:20.357Z,99157.72
2022-08-25T18:23:47.762Z,99156.88
2022-08-25T18:26:15.509Z,99160.41
2022-08-25T18:28:44.012Z,99165.28
2022-08-25T18:31:12.218Z,99171.53
2022-08-25T18:33:42.135Z,99169.22
2022-08-25T18:36:09.814Z,99171.13
2022-08-25T18:38:57.907Z,99166.88
2022-08-25T18:41:26.494Z,99170.09
2022-08-25T18:43:53.331Z,99168.41
2022-08-25T18:46:22.683Z,99171.09
2022-08-25T18:48:52.569Z,99169.09
2022-08-25T18:51:23.075Z,99169.81
2022-08-25T18:53:51.119Z,99177.63
2022-08-25T18:56:19.178Z,99176.72
2022-08-25T18:58:47.439Z,99182.13
2022-08-25T19:01:15.698Z,99181.56
2022-08-25T19:03:43.115Z,99176.00
2022-08-25T19:06:10.687Z,99177.44
2022-08-25T19:08:40.056Z,99178.97
2022-08-25T19:11:10.018Z,99184.81
2022-08-25T19:13:37.463Z,99177.38
2022-08-25T19:16:32.165Z,99169.19
2022-08-25T19:19:00.927Z,99168.94
2022-08-25T19:21:30.250Z,99166.66
2022-08-25T19:23:56.918Z,99169.28
2022-08-25T19:26:23.674Z,99173.00
2022-08-25T19:28:52.781Z,99176.66
2022-08-25T19:31:24.235Z,99171.28
2022-08-25T19:33:52.913Z,99174.31
2022-08-25T19:36:23.413Z,99173.59
2022-08-25T19:38:58.524Z,99176.03
2022-08-25T19:41:26.175Z,99171.47
2022-08-25T19:43:56.425Z,99166.13
2022-08-25T19:46:33.131Z,99172.56
2022-08-25T19:49:09.141Z,99168.31
2022-08-25T19:51:41.285Z,99171.03
2022-08-25T19:54:16.081Z,99172.72
2022-08-25T19:56:55.054Z,99171.41
2022-08-25T19:59:40.699Z,99169.06
2022-08-25T20:02:21.859Z,99177.63
2022-08-25T20:04:50.336Z,99181.63
2022-08-25T20:07:18.983Z,99175.16
2022-08-25T20:09:45.927Z,99182.44
2022-08-25T20:12:12.937Z,99185.53
2022-08-25T20:14:39.795Z,99188.84
2022-08-25T20:17:14.374Z,99179.88
2022-08-25T20:19:52.499Z,99181.28
2022-08-25T20:22:22.500Z,99180.47
2022-08-25T20:24:56.063Z,99185.13
2022-08-25T20:27:31.037Z,99190.19
2022-08-25T20:29:58.391Z,99190.50
2022-08-25T20:32:25.176Z,99188.34
2022-08-25T20:34:53.914Z,99188.94
2022-08-25T20:37:22.491Z,99197.38
2022-08-25T20:39:49.216Z,99190.31
2022-08-25T20:42:16.350Z,99189.56
2022-08-25T20:44:43.028Z,99188.75
2022-08-25T20:47:10.735Z,99189.63
2022-08-25T20:49:39.567Z,99188.59
2022-08-25T20:52:07.826Z,99189.16
2022-08-25T20:54:34.680Z,99192.72
2022-08-25T20:57:02.592Z,99192.78
2022-08-25T20:59:29.432Z,99192.56
2022-08-25T21:01:56.322Z,99196.97
2022-08-25T21:04:25.961Z,99189.47
2022-08-25T21:06:53.016Z,99204.16
2022-08-25T21:09:22.804Z,99205.25
2022-08-25T21:11:53.237Z,99196.84
2022-08-25T21:14:21.157Z,99197.72
2022-08-25T21:16:48.244Z,99198.81
2022-08-25T21:19:26.638Z,99203.44
2022-08-25T21:21:59.932Z,99203.22
2022-08-25T21:24:27.494Z,99202.19
2022-08-25T21:26:55.894Z,99204.91
2022-08-25T21:29:24.426Z,99193.50
2022-08-25T21:31:51.118Z,99194.09
2022-08-25T21:34:18.819Z,99195.72
2022-08-25T21:36:45.991Z,99201.72
2022-08-25T21:39:14.419Z,99200.66
2022-08-25T21:41:42.778Z,99195.00
2022-08-25T21:44:10.406Z,99189.84
2022-08-25T21:46:37.460Z,99196.41
2022-08-25T21:49:06.707Z,99192.34
2022-08-25T21:51:40.978Z,99191.53
2022-08-25T21:54:12.950Z,99195.13
2022-08-25T21:56:52.310Z,99184.78
2022-08-25T21:59:24.115Z,99183.75
2022-08-25T22:01:54.773Z,99187.56
2022-08-25T22:04:22.857Z,99180.75
2022-08-25T22:06:50.276Z,99193.50
2022-08-25T22:09:17.357Z,99183.22
2022-08-25T22:11:46.189Z,99185.13
2022-08-25T22:14:14.500Z,99184.09
2022-08-25T22:16:42.580Z,99177.84
2022-08-25T22:19:12.444Z,99180.00
2022-08-25T22:21:40.547Z,99177.28
2022-08-25T22:24:07.294Z,99171.88
2022-08-25T22:26:34.143Z,99173.75
2022-08-25T22:29:01.623Z,99171.88
2022-08-25T22:31:28.649Z,99169.94
2022-08-25T22:33:57.716Z,99171.88
2022-08-25T22:36:35.938Z,99171.88
2022-08-25T22:39:05.094Z,99159.66
2022-08-25T22:41:32.221Z,99164.00
2022-08-25T22:43:59.940Z,99158.56
2022-08-25T22:46:28.285Z,99166.16
2022-08-25T22:48:56.608Z,99163.47
2022-08-25T22:51:26.898Z,99161.84
2022-08-25T22:53:54.705Z,99163.50
2022-08-25T22:56:30.954Z,99155.91
2022-08-25T22:59:00.499Z,99161.59
2022-08-25T23:01:27.770Z,99154.03
2022-08-25T23:03:54.753Z,99151.91
2022-08-25T23:06:24.890Z,99150.84
2022-08-25T23:08:53.669Z,99149.00
2022-08-25T23:11:21.471Z,99142.50
2022-08-25T23:13:48.113Z,99146.91
2022-08-25T23:16:15.640Z,99144.78
2022-08-25T23:18:43.908Z,99142.09
2022-08-25T23:21:38.231Z,99137.75
2022-08-25T23:24:09.075Z,99131.28
2022-08-25T23:26:38.189Z,99133.72
2022-08-25T23:29:17.760Z,99130.72
2022-08-25T23:31:46.611Z,99129.38
2022-08-25T23:34:13.713Z,99127.75
2022-08-25T23:36:40.757Z,99127.53
2022-08-25T23:39:09.015Z,99123.19
2022-08-25T23:41:36.874Z,99122.66
2022-08-25T23:44:05.546Z,99130.53
2022-08-25T23:46:34.972Z,99125.38
2022-08-25T23:49:03.956Z,99121.06
2022-08-25T23:51:37.198Z,99111.56
2022-08-25T23:54:09.220Z,99114.88
2022-08-25T23:56:42.247Z,99119.19
2022-08-25T23:59:11.298Z,99108.66
